sensor_id;sensor_type;location;lat;lon;timestamp;P1;durP1;ratioP1;P2;durP2;ratioP2
20908;SDS011;10614;53.198;6.570;2022-09-13T00:01:37;8.38;;;4.93;;
20908;SDS011;10614;53.198;6.570;2022-09-13T00:03:39;10.30;;;6.20;;
20908;SDS011;10614;53.198;6.570;2022-09-13T00:05:40;12.00;;;6.90;;
20908;SDS011;10614;53.198;6.570;2022-09-13T00:07:42;11.90;;;6.97;;
20908;SDS011;10614;53.198;6.570;2022-09-13T00:09:43;12.10;;;6.90;;
20908;SDS011;10614;53.198;6.570;2022-09-13T00:11:45;9.77;;;5.65;;
20908;SDS011;10614;53.198;6.570;2022-09-13T00:13:47;12.70;;;7.55;;
20908;SDS011;10614;53.198;6.570;2022-09-13T00:15:50;10.15;;;6.90;;
20908;SDS011;10614;53.198;6.570;2022-09-13T00:17:52;8.90;;;5.80;;
20908;SDS011;10614;53.198;6.570;2022-09-13T00:19:53;10.18;;;5.97;;
20908;SDS011;10614;53.198;6.570;2022-09-13T00:21:55;8.32;;;5.13;;
20908;SDS011;10614;53.198;6.570;2022-09-13T00:23:57;10.63;;;6.75;;
20908;SDS011;10614;53.198;6.570;2022-09-13T00:26:02;12.88;;;7.05;;
20908;SDS011;10614;53.198;6.570;2022-09-13T00:28:05;13.38;;;8.32;;
20908;SDS011;10614;53.198;6.570;2022-09-13T00:30:08;9.80;;;5.47;;
20908;SDS011;10614;53.198;6.570;2022-09-13T00:32:12;8.98;;;5.28;;
20908;SDS011;10614;53.198;6.570;2022-09-13T00:34:14;8.35;;;4.63;;
20908;SDS011;10614;53.198;6.570;2022-09-13T00:36:15;12.35;;;7.60;;
20908;SDS011;10614;53.198;6.570;2022-09-13T00:38:17;10.52;;;5.65;;
20908;SDS011;10614;53.198;6.570;2022-09-13T00:40:19;12.05;;;7.55;;
20908;SDS011;10614;53.198;6.570;2022-09-13T00:42:23;11.35;;;6.95;;
20908;SDS011;10614;53.198;6.570;2022-09-13T00:44:46;13.95;;;7.78;;
20908;SDS011;10614;53.198;6.570;2022-09-13T00:46:52;10.80;;;6.07;;
20908;SDS011;10614;53.198;6.570;2022-09-13T00:48:56;9.13;;;5.45;;
20908;SDS011;10614;53.198;6.570;2022-09-13T00:51:02;7.57;;;4.78;;
20908;SDS011;10614;53.198;6.570;2022-09-13T00:53:07;7.68;;;4.65;;
20908;SDS011;10614;53.198;6.570;2022-09-13T00:55:12;13.13;;;6.88;;
20908;SDS011;10614;53.198;6.570;2022-09-13T00:57:20;9.85;;;5.63;;
20908;SDS011;10614;53.198;6.570;2022-09-13T00:59:25;9.35;;;5.10;;
20908;SDS011;10614;53.198;6.570;2022-09-13T01:01:31;7.82;;;4.65;;
20908;SDS011;10614;53.198;6.570;2022-09-13T01:03:37;8.18;;;4.72;;
20908;SDS011;10614;53.198;6.570;2022-09-13T01:05:43;8.82;;;4.88;;
20908;SDS011;10614;53.198;6.570;2022-09-13T01:07:49;10.65;;;5.20;;
20908;SDS011;10614;53.198;6.570;2022-09-13T01:09:51;8.50;;;4.60;;
20908;SDS011;10614;53.198;6.570;2022-09-13T01:11:54;11.20;;;5.68;;
20908;SDS011;10614;53.198;6.570;2022-09-13T01:14:03;9.13;;;5.05;;
20908;SDS011;10614;53.198;6.570;2022-09-13T01:16:07;9.23;;;4.95;;
20908;SDS011;10614;53.198;6.570;2022-09-13T01:18:08;6.88;;;4.13;;
20908;SDS011;10614;53.198;6.570;2022-09-13T01:20:11;7.70;;;4.85;;
20908;SDS011;10614;53.198;6.570;2022-09-13T01:22:24;8.65;;;5.00;;
20908;SDS011;10614;53.198;6.570;2022-09-13T01:24:54;8.68;;;4.75;;
20908;SDS011;10614;53.198;6.570;2022-09-13T01:27:18;10.52;;;5.85;;
20908;SDS011;10614;53.198;6.570;2022-09-13T01:29:40;10.02;;;5.72;;
20908;SDS011;10614;53.198;6.570;2022-09-13T01:32:05;12.93;;;7.13;;
20908;SDS011;10614;53.198;6.570;2022-09-13T01:34:17;8.25;;;5.13;;
20908;SDS011;10614;53.198;6.570;2022-09-13T01:36:33;7.43;;;4.30;;
20908;SDS011;10614;53.198;6.570;2022-09-13T01:38:55;12.03;;;6.53;;
20908;SDS011;10614;53.198;6.570;2022-09-13T01:41:05;6.57;;;4.20;;
20908;SDS011;10614;53.198;6.570;2022-09-13T01:43:22;5.18;;;3.30;;
20908;SDS011;10614;53.198;6.570;2022-09-13T01:45:35;5.78;;;3.13;;
20908;SDS011;10614;53.198;6.570;2022-09-13T01:47:44;6.05;;;3.22;;
20908;SDS011;10614;53.198;6.570;2022-09-13T01:49:56;5.32;;;2.85;;
20908;SDS011;10614;53.198;6.570;2022-09-13T01:52:09;7.30;;;4.18;;
20908;SDS011;10614;53.198;6.570;2022-09-13T01:54:19;8.63;;;4.80;;
20908;SDS011;10614;53.198;6.570;2022-09-13T01:56:27;7.53;;;4.13;;
20908;SDS011;10614;53.198;6.570;2022-09-13T01:58:36;8.40;;;4.72;;
20908;SDS011;10614;53.198;6.570;2022-09-13T02:00:45;7.80;;;3.60;;
20908;SDS011;10614;53.198;6.570;2022-09-13T02:02:53;8.93;;;4.60;;
20908;SDS011;10614;53.198;6.570;2022-09-13T02:04:59;8.43;;;4.10;;
20908;SDS011;10614;53.198;6.570;2022-09-13T02:07:07;6.57;;;3.60;;
20908;SDS011;10614;53.198;6.570;2022-09-13T02:09:13;8.95;;;4.43;;
20908;SDS011;10614;53.198;6.570;2022-09-13T02:11:19;7.55;;;3.88;;
20908;SDS011;10614;53.198;6.570;2022-09-13T02:13:23;7.43;;;4.45;;
20908;SDS011;10614;53.198;6.570;2022-09-13T02:15:28;6.47;;;3.67;;
20908;SDS011;10614;53.198;6.570;2022-09-13T02:17:37;10.18;;;4.88;;
20908;SDS011;10614;53.198;6.570;2022-09-13T02:19:44;6.38;;;3.47;;
20908;SDS011;10614;53.198;6.570;2022-09-13T02:21:53;8.18;;;4.32;;
20908;SDS011;10614;53.198;6.570;2022-09-13T02:23:59;7.75;;;3.80;;
20908;SDS011;10614;53.198;6.570;2022-09-13T02:26:03;5.47;;;3.22;;
20908;SDS011;10614;53.198;6.570;2022-09-13T02:28:08;6.15;;;3.35;;
20908;SDS011;10614;53.198;6.570;2022-09-13T02:30:13;5.07;;;2.97;;
20908;SDS011;10614;53.198;6.570;2022-09-13T02:32:17;7.57;;;3.72;;
20908;SDS011;10614;53.198;6.570;2022-09-13T02:34:25;8.45;;;4.85;;
20908;SDS011;10614;53.198;6.570;2022-09-13T02:36:35;6.97;;;4.18;;
20908;SDS011;10614;53.198;6.570;2022-09-13T02:38:41;5.82;;;2.97;;
20908;SDS011;10614;53.198;6.570;2022-09-13T02:40:48;5.68;;;2.80;;
20908;SDS011;10614;53.198;6.570;2022-09-13T02:42:56;6.30;;;3.67;;
20908;SDS011;10614;53.198;6.570;2022-09-13T02:45:02;7.53;;;4.53;;
20908;SDS011;10614;53.198;6.570;2022-09-13T02:47:08;9.23;;;5.82;;
20908;SDS011;10614;53.198;6.570;2022-09-13T02:49:21;6.57;;;3.75;;
20908;SDS011;10614;53.198;6.570;2022-09-13T02:51:32;6.63;;;3.47;;
20908;SDS011;10614;53.198;6.570;2022-09-13T02:53:43;6.13;;;3.42;;
20908;SDS011;10614;53.198;6.570;2022-09-13T02:55:52;5.05;;;3.22;;
20908;SDS011;10614;53.198;6.570;2022-09-13T02:57:59;10.23;;;4.70;;
20908;SDS011;10614;53.198;6.570;2022-09-13T03:00:06;9.05;;;3.78;;
20908;SDS011;10614;53.198;6.570;2022-09-13T03:02:09;6.35;;;3.42;;
20908;SDS011;10614;53.198;6.570;2022-09-13T03:04:14;4.93;;;3.10;;
20908;SDS011;10614;53.198;6.570;2022-09-13T03:06:22;8.93;;;4.03;;
20908;SDS011;10614;53.198;6.570;2022-09-13T03:08:24;9.75;;;5.70;;
20908;SDS011;10614;53.198;6.570;2022-09-13T03:10:28;9.70;;;5.13;;
20908;SDS011;10614;53.198;6.570;2022-09-13T03:12:49;8.80;;;4.40;;
20908;SDS011;10614;53.198;6.570;2022-09-13T03:15:05;7.50;;;4.28;;
20908;SDS011;10614;53.198;6.570;2022-09-13T03:17:19;4.93;;;2.80;;
20908;SDS011;10614;53.198;6.570;2022-09-13T03:19:37;4.65;;;2.40;;
20908;SDS011;10614;53.198;6.570;2022-09-13T03:21:53;2.75;;;1.90;;
20908;SDS011;10614;53.198;6.570;2022-09-13T03:24:07;3.17;;;1.45;;
20908;SDS011;10614;53.198;6.570;2022-09-13T03:26:23;3.15;;;1.33;;
20908;SDS011;10614;53.198;6.570;2022-09-13T03:28:35;3.25;;;1.27;;
20908;SDS011;10614;53.198;6.570;2022-09-13T03:30:47;1.65;;;0.80;;
20908;SDS011;10614;53.198;6.570;2022-09-13T03:32:54;1.85;;;0.80;;
20908;SDS011;10614;53.198;6.570;2022-09-13T03:35:03;2.17;;;0.60;;
20908;SDS011;10614;53.198;6.570;2022-09-13T03:37:15;1.45;;;0.52;;
20908;SDS011;10614;53.198;6.570;2022-09-13T03:39:23;1.33;;;0.50;;
20908;SDS011;10614;53.198;6.570;2022-09-13T03:41:35;1.10;;;0.40;;
20908;SDS011;10614;53.198;6.570;2022-09-13T03:43:44;0.60;;;0.40;;
20908;SDS011;10614;53.198;6.570;2022-09-13T03:45:51;0.60;;;0.40;;
20908;SDS011;10614;53.198;6.570;2022-09-13T03:47:55;0.95;;;0.40;;
20908;SDS011;10614;53.198;6.570;2022-09-13T03:49:58;1.85;;;0.60;;
20908;SDS011;10614;53.198;6.570;2022-09-13T03:52:00;0.93;;;0.50;;
20908;SDS011;10614;53.198;6.570;2022-09-13T03:54:05;1.27;;;0.80;;
20908;SDS011;10614;53.198;6.570;2022-09-13T03:56:12;1.65;;;0.60;;
20908;SDS011;10614;53.198;6.570;2022-09-13T03:58:15;1.30;;;0.50;;
20908;SDS011;10614;53.198;6.570;2022-09-13T04:00:18;0.95;;;0.50;;
20908;SDS011;10614;53.198;6.570;2022-09-13T04:02:20;0.60;;;0.60;;
20908;SDS011;10614;53.198;6.570;2022-09-13T04:04:23;0.95;;;0.60;;
20908;SDS011;10614;53.198;6.570;2022-09-13T04:06:25;1.10;;;0.63;;
20908;SDS011;10614;53.198;6.570;2022-09-13T04:08:27;0.88;;;0.40;;
20908;SDS011;10614;53.198;6.570;2022-09-13T04:10:30;0.40;;;0.40;;
20908;SDS011;10614;53.198;6.570;2022-09-13T04:12:32;0.90;;;0.67;;
20908;SDS011;10614;53.198;6.570;2022-09-13T04:14:34;0.75;;;0.60;;
20908;SDS011;10614;53.198;6.570;2022-09-13T04:16:36;1.02;;;0.60;;
20908;SDS011;10614;53.198;6.570;2022-09-13T04:18:37;0.43;;;0.40;;
20908;SDS011;10614;53.198;6.570;2022-09-13T04:20:39;1.45;;;0.35;;
20908;SDS011;10614;53.198;6.570;2022-09-13T04:22:41;0.70;;;0.45;;
20908;SDS011;10614;53.198;6.570;2022-09-13T04:24:42;0.47;;;0.38;;
20908;SDS011;10614;53.198;6.570;2022-09-13T04:26:47;0.70;;;0.60;;
20908;SDS011;10614;53.198;6.570;2022-09-13T04:28:51;1.27;;;0.63;;
20908;SDS011;10614;53.198;6.570;2022-09-13T04:30:53;1.27;;;0.52;;
20908;SDS011;10614;53.198;6.570;2022-09-13T04:32:54;0.38;;;0.32;;
20908;SDS011;10614;53.198;6.570;2022-09-13T04:34:58;0.85;;;0.20;;
20908;SDS011;10614;53.198;6.570;2022-09-13T04:37:00;0.57;;;0.40;;
20908;SDS011;10614;53.198;6.570;2022-09-13T04:39:02;0.70;;;0.50;;
20908;SDS011;10614;53.198;6.570;2022-09-13T04:41:03;2.20;;;0.55;;
20908;SDS011;10614;53.198;6.570;2022-09-13T04:43:07;0.50;;;0.50;;
20908;SDS011;10614;53.198;6.570;2022-09-13T04:45:09;1.08;;;0.32;;
20908;SDS011;10614;53.198;6.570;2022-09-13T04:47:11;0.70;;;0.30;;
20908;SDS011;10614;53.198;6.570;2022-09-13T04:49:12;0.60;;;0.40;;
20908;SDS011;10614;53.198;6.570;2022-09-13T04:51:15;1.02;;;0.50;;
20908;SDS011;10614;53.198;6.570;2022-09-13T04:53:16;0.70;;;0.50;;
20908;SDS011;10614;53.198;6.570;2022-09-13T04:55:18;2.25;;;0.70;;
20908;SDS011;10614;53.198;6.570;2022-09-13T04:57:20;1.98;;;0.40;;
20908;SDS011;10614;53.198;6.570;2022-09-13T04:59:23;0.73;;;0.40;;
20908;SDS011;10614;53.198;6.570;2022-09-13T05:01:24;1.58;;;0.40;;
20908;SDS011;10614;53.198;6.570;2022-09-13T05:03:28;1.40;;;0.70;;
20908;SDS011;10614;53.198;6.570;2022-09-13T05:05:29;0.45;;;0.40;;
20908;SDS011;10614;53.198;6.570;2022-09-13T05:07:32;0.70;;;0.45;;
20908;SDS011;10614;53.198;6.570;2022-09-13T05:09:34;1.35;;;0.60;;
20908;SDS011;10614;53.198;6.570;2022-09-13T05:11:35;1.15;;;0.45;;
20908;SDS011;10614;53.198;6.570;2022-09-13T05:13:37;1.65;;;0.50;;
20908;SDS011;10614;53.198;6.570;2022-09-13T05:15:40;0.70;;;0.50;;
20908;SDS011;10614;53.198;6.570;2022-09-13T05:17:42;0.63;;;0.45;;
20908;SDS011;10614;53.198;6.570;2022-09-13T05:19:44;1.15;;;0.55;;
20908;SDS011;10614;53.198;6.570;2022-09-13T05:21:45;2.13;;;0.63;;
20908;SDS011;10614;53.198;6.570;2022-09-13T05:23:47;0.88;;;0.57;;
20908;SDS011;10614;53.198;6.570;2022-09-13T05:25:53;1.50;;;0.70;;
20908;SDS011;10614;53.198;6.570;2022-09-13T05:27:55;0.93;;;0.60;;
20908;SDS011;10614;53.198;6.570;2022-09-13T05:29:57;3.60;;;0.65;;
20908;SDS011;10614;53.198;6.570;2022-09-13T05:32:00;1.88;;;0.82;;
20908;SDS011;10614;53.198;6.570;2022-09-13T05:34:04;1.77;;;0.70;;
20908;SDS011;10614;53.198;6.570;2022-09-13T05:36:07;2.50;;;1.10;;
20908;SDS011;10614;53.198;6.570;2022-09-13T05:38:09;4.97;;;2.00;;
20908;SDS011;10614;53.198;6.570;2022-09-13T05:40:10;3.13;;;1.45;;
20908;SDS011;10614;53.198;6.570;2022-09-13T05:42:12;3.13;;;1.92;;
20908;SDS011;10614;53.198;6.570;2022-09-13T05:44:14;4.20;;;1.73;;
20908;SDS011;10614;53.198;6.570;2022-09-13T05:46:16;2.72;;;1.45;;
20908;SDS011;10614;53.198;6.570;2022-09-13T05:48:21;2.42;;;1.10;;
20908;SDS011;10614;53.198;6.570;2022-09-13T05:50:23;3.10;;;1.08;;
20908;SDS011;10614;53.198;6.570;2022-09-13T05:52:24;1.40;;;0.80;;
20908;SDS011;10614;53.198;6.570;2022-09-13T05:54:26;1.85;;;0.57;;
20908;SDS011;10614;53.198;6.570;2022-09-13T05:56:28;1.67;;;0.90;;
20908;SDS011;10614;53.198;6.570;2022-09-13T05:58:31;0.95;;;0.63;;
20908;SDS011;10614;53.198;6.570;2022-09-13T06:00:34;1.02;;;0.60;;
20908;SDS011;10614;53.198;6.570;2022-09-13T06:02:35;0.60;;;0.60;;
20908;SDS011;10614;53.198;6.570;2022-09-13T06:04:38;0.43;;;0.43;;
20908;SDS011;10614;53.198;6.570;2022-09-13T06:06:40;1.48;;;0.80;;
20908;SDS011;10614;53.198;6.570;2022-09-13T06:08:42;1.27;;;0.57;;
20908;SDS011;10614;53.198;6.570;2022-09-13T06:10:51;2.42;;;0.60;;
20908;SDS011;10614;53.198;6.570;2022-09-13T06:12:54;1.02;;;0.50;;
20908;SDS011;10614;53.198;6.570;2022-09-13T06:14:56;0.50;;;0.40;;
20908;SDS011;10614;53.198;6.570;2022-09-13T06:16:57;1.08;;;0.50;;
20908;SDS011;10614;53.198;6.570;2022-09-13T06:18:59;1.38;;;0.50;;
20908;SDS011;10614;53.198;6.570;2022-09-13T06:21:03;1.75;;;0.52;;
20908;SDS011;10614;53.198;6.570;2022-09-13T06:23:08;2.20;;;0.60;;
20908;SDS011;10614;53.198;6.570;2022-09-13T06:25:10;1.48;;;0.50;;
20908;SDS011;10614;53.198;6.570;2022-09-13T06:27:11;0.57;;;0.57;;
20908;SDS011;10614;53.198;6.570;2022-09-13T06:29:13;2.08;;;0.80;;
20908;SDS011;10614;53.198;6.570;2022-09-13T06:31:15;2.00;;;0.80;;
20908;SDS011;10614;53.198;6.570;2022-09-13T06:33:18;1.15;;;0.55;;
20908;SDS011;10614;53.198;6.570;2022-09-13T06:35:20;1.70;;;0.73;;
20908;SDS011;10614;53.198;6.570;2022-09-13T06:37:23;1.60;;;0.90;;
20908;SDS011;10614;53.198;6.570;2022-09-13T06:39:25;3.17;;;1.10;;
20908;SDS011;10614;53.198;6.570;2022-09-13T06:41:26;2.13;;;0.88;;
20908;SDS011;10614;53.198;6.570;2022-09-13T06:43:28;1.15;;;0.95;;
20908;SDS011;10614;53.198;6.570;2022-09-13T06:45:30;1.25;;;0.80;;
20908;SDS011;10614;53.198;6.570;2022-09-13T06:47:32;1.25;;;0.65;;
20908;SDS011;10614;53.198;6.570;2022-09-13T06:49:34;1.92;;;1.05;;
20908;SDS011;10614;53.198;6.570;2022-09-13T06:51:36;1.55;;;0.65;;
20908;SDS011;10614;53.198;6.570;2022-09-13T06:53:40;1.35;;;0.50;;
20908;SDS011;10614;53.198;6.570;2022-09-13T06:55:42;3.23;;;1.13;;
20908;SDS011;10614;53.198;6.570;2022-09-13T06:57:43;2.33;;;0.85;;
20908;SDS011;10614;53.198;6.570;2022-09-13T06:59:45;2.50;;;0.98;;
20908;SDS011;10614;53.198;6.570;2022-09-13T07:01:47;1.45;;;1.10;;
20908;SDS011;10614;53.198;6.570;2022-09-13T07:03:51;1.60;;;0.90;;
20908;SDS011;10614;53.198;6.570;2022-09-13T07:05:53;0.80;;;0.70;;
20908;SDS011;10614;53.198;6.570;2022-09-13T07:07:55;1.05;;;0.90;;
20908;SDS011;10614;53.198;6.570;2022-09-13T07:09:59;1.35;;;0.80;;
20908;SDS011;10614;53.198;6.570;2022-09-13T07:12:01;2.67;;;1.23;;
20908;SDS011;10614;53.198;6.570;2022-09-13T07:14:06;2.72;;;0.95;;
20908;SDS011;10614;53.198;6.570;2022-09-13T07:16:10;0.75;;;0.70;;
20908;SDS011;10614;53.198;6.570;2022-09-13T07:18:11;1.48;;;1.10;;
20908;SDS011;10614;53.198;6.570;2022-09-13T07:20:13;3.63;;;0.95;;
20908;SDS011;10614;53.198;6.570;2022-09-13T07:22:16;2.13;;;1.10;;
20908;SDS011;10614;53.198;6.570;2022-09-13T07:24:18;2.28;;;0.90;;
20908;SDS011;10614;53.198;6.570;2022-09-13T07:26:22;2.10;;;0.95;;
20908;SDS011;10614;53.198;6.570;2022-09-13T07:28:27;2.45;;;0.90;;
20908;SDS011;10614;53.198;6.570;2022-09-13T07:30:30;3.05;;;0.80;;
20908;SDS011;10614;53.198;6.570;2022-09-13T07:32:33;1.88;;;0.65;;
20908;SDS011;10614;53.198;6.570;2022-09-13T07:34:35;1.90;;;0.50;;
20908;SDS011;10614;53.198;6.570;2022-09-13T07:36:36;1.65;;;0.65;;
20908;SDS011;10614;53.198;6.570;2022-09-13T07:38:39;2.13;;;0.90;;
20908;SDS011;10614;53.198;6.570;2022-09-13T07:40:41;1.95;;;0.50;;
20908;SDS011;10614;53.198;6.570;2022-09-13T07:42:45;2.88;;;0.60;;
20908;SDS011;10614;53.198;6.570;2022-09-13T07:44:47;1.13;;;0.55;;
20908;SDS011;10614;53.198;6.570;2022-09-13T07:46:48;1.45;;;0.68;;
20908;SDS011;10614;53.198;6.570;2022-09-13T07:48:51;2.38;;;0.88;;
20908;SDS011;10614;53.198;6.570;2022-09-13T07:50:57;2.58;;;0.70;;
20908;SDS011;10614;53.198;6.570;2022-09-13T07:53:00;1.25;;;0.82;;
20908;SDS011;10614;53.198;6.570;2022-09-13T07:55:03;1.42;;;0.70;;
20908;SDS011;10614;53.198;6.570;2022-09-13T07:57:05;2.33;;;0.88;;
20908;SDS011;10614;53.198;6.570;2022-09-13T07:59:10;2.97;;;0.90;;
20908;SDS011;10614;53.198;6.570;2022-09-13T08:01:13;1.40;;;0.73;;
20908;SDS011;10614;53.198;6.570;2022-09-13T08:03:17;4.22;;;0.73;;
20908;SDS011;10614;53.198;6.570;2022-09-13T08:05:18;2.05;;;0.70;;
20908;SDS011;10614;53.198;6.570;2022-09-13T08:07:20;2.45;;;0.70;;
20908;SDS011;10614;53.198;6.570;2022-09-13T08:09:22;0.93;;;0.60;;
20908;SDS011;10614;53.198;6.570;2022-09-13T08:11:24;1.33;;;0.70;;
20908;SDS011;10614;53.198;6.570;2022-09-13T08:13:29;3.83;;;0.80;;
20908;SDS011;10614;53.198;6.570;2022-09-13T08:15:33;1.42;;;0.60;;
20908;SDS011;10614;53.198;6.570;2022-09-13T08:17:35;0.60;;;0.43;;
20908;SDS011;10614;53.198;6.570;2022-09-13T08:19:37;1.40;;;0.47;;
20908;SDS011;10614;53.198;6.570;2022-09-13T08:21:39;2.40;;;0.75;;
20908;SDS011;10614;53.198;6.570;2022-09-13T08:23:41;0.80;;;0.38;;
20908;SDS011;10614;53.198;6.570;2022-09-13T08:25:44;0.63;;;0.40;;
20908;SDS011;10614;53.198;6.570;2022-09-13T08:27:45;3.45;;;0.60;;
20908;SDS011;10614;53.198;6.570;2022-09-13T08:29:47;1.48;;;0.40;;
20908;SDS011;10614;53.198;6.570;2022-09-13T08:31:50;1.23;;;0.57;;
20908;SDS011;10614;53.198;6.570;2022-09-13T08:33:52;2.97;;;0.43;;
20908;SDS011;10614;53.198;6.570;2022-09-13T08:35:54;4.45;;;0.82;;
20908;SDS011;10614;53.198;6.570;2022-09-13T08:37:57;0.82;;;0.43;;
20908;SDS011;10614;53.198;6.570;2022-09-13T08:39:59;4.03;;;0.63;;
20908;SDS011;10614;53.198;6.570;2022-09-13T08:42:14;6.85;;;1.50;;
20908;SDS011;10614;53.198;6.570;2022-09-13T08:44:25;2.20;;;0.50;;
20908;SDS011;10614;53.198;6.570;2022-09-13T08:46:30;3.28;;;0.73;;
20908;SDS011;10614;53.198;6.570;2022-09-13T08:48:38;3.65;;;0.80;;
20908;SDS011;10614;53.198;6.570;2022-09-13T08:50:44;1.60;;;0.50;;
20908;SDS011;10614;53.198;6.570;2022-09-13T08:53:00;3.30;;;0.90;;
20908;SDS011;10614;53.198;6.570;2022-09-13T08:55:24;1.95;;;0.57;;
20908;SDS011;10614;53.198;6.570;2022-09-13T08:57:35;4.35;;;0.60;;
20908;SDS011;10614;53.198;6.570;2022-09-13T08:59:48;0.68;;;0.40;;
20908;SDS011;10614;53.198;6.570;2022-09-13T09:02:01;3.33;;;0.98;;
20908;SDS011;10614;53.198;6.570;2022-09-13T09:06:38;2.47;;;0.40;;
20908;SDS011;10614;53.198;6.570;2022-09-13T09:08:44;1.50;;;0.43;;
20908;SDS011;10614;53.198;6.570;2022-09-13T09:10:50;2.75;;;0.50;;
20908;SDS011;10614;53.198;6.570;2022-09-13T09:12:55;4.97;;;0.45;;
20908;SDS011;10614;53.198;6.570;2022-09-13T09:15:01;6.35;;;0.70;;
20908;SDS011;10614;53.198;6.570;2022-09-13T09:17:06;3.58;;;0.75;;
20908;SDS011;10614;53.198;6.570;2022-09-13T09:19:16;4.70;;;1.60;;
20908;SDS011;10614;53.198;6.570;2022-09-13T09:46:20;0.70;;;0.30;;
20908;SDS011;10614;53.198;6.570;2022-09-13T10:09:24;6.80;;;0.60;;
20908;SDS011;10614;53.198;6.570;2022-09-13T10:11:44;2.00;;;0.70;;
20908;SDS011;10614;53.198;6.570;2022-09-13T10:14:00;5.38;;;0.70;;
20908;SDS011;10614;53.198;6.570;2022-09-13T10:20:19;2.42;;;0.50;;
20908;SDS011;10614;53.198;6.570;2022-09-13T10:22:25;1.63;;;0.63;;
20908;SDS011;10614;53.198;6.570;2022-09-13T10:24:28;1.23;;;0.43;;
20908;SDS011;10614;53.198;6.570;2022-09-13T10:26:31;2.97;;;0.70;;
20908;SDS011;10614;53.198;6.570;2022-09-13T10:28:40;1.13;;;0.52;;
20908;SDS011;10614;53.198;6.570;2022-09-13T10:30:45;2.85;;;0.50;;
20908;SDS011;10614;53.198;6.570;2022-09-13T10:32:53;1.52;;;0.30;;
20908;SDS011;10614;53.198;6.570;2022-09-13T10:34:57;5.18;;;0.40;;
20908;SDS011;10614;53.198;6.570;2022-09-13T10:37:11;3.15;;;0.65;;
20908;SDS011;10614;53.198;6.570;2022-09-13T10:39:19;3.30;;;0.90;;
20908;SDS011;10614;53.198;6.570;2022-09-13T10:41:23;1.70;;;0.47;;
20908;SDS011;10614;53.198;6.570;2022-09-13T10:45:31;2.10;;;0.60;;
20908;SDS011;10614;53.198;6.570;2022-09-13T10:47:36;2.13;;;0.50;;
20908;SDS011;10614;53.198;6.570;2022-09-13T10:49:45;0.50;;;0.30;;
20908;SDS011;10614;53.198;6.570;2022-09-13T10:51:48;1.80;;;0.32;;
20908;SDS011;10614;53.198;6.570;2022-09-13T10:53:50;0.75;;;0.35;;
20908;SDS011;10614;53.198;6.570;2022-09-13T10:55:58;3.72;;;0.40;;
20908;SDS011;10614;53.198;6.570;2022-09-13T10:58:12;2.83;;;0.40;;
20908;SDS011;10614;53.198;6.570;2022-09-13T11:00:17;3.17;;;0.68;;
20908;SDS011;10614;53.198;6.570;2022-09-13T11:02:29;1.95;;;0.60;;
20908;SDS011;10614;53.198;6.570;2022-09-13T11:04:49;3.17;;;0.60;;
20908;SDS011;10614;53.198;6.570;2022-09-13T11:07:08;2.95;;;0.40;;
20908;SDS011;10614;53.198;6.570;2022-09-13T11:09:24;3.65;;;0.60;;
20908;SDS011;10614;53.198;6.570;2022-09-13T11:11:32;1.88;;;0.47;;
20908;SDS011;10614;53.198;6.570;2022-09-13T11:13:44;1.95;;;0.45;;
20908;SDS011;10614;53.198;6.570;2022-09-13T11:15:56;3.33;;;0.57;;
20908;SDS011;10614;53.198;6.570;2022-09-13T11:20:41;3.65;;;0.60;;
20908;SDS011;10614;53.198;6.570;2022-09-13T11:25:31;1.83;;;0.73;;
20908;SDS011;10614;53.198;6.570;2022-09-13T11:27:45;3.13;;;0.40;;
20908;SDS011;10614;53.198;6.570;2022-09-13T11:30:00;1.45;;;0.50;;
20908;SDS011;10614;53.198;6.570;2022-09-13T11:32:14;1.63;;;0.40;;
20908;SDS011;10614;53.198;6.570;2022-09-13T11:34:34;0.52;;;0.28;;
20908;SDS011;10614;53.198;6.570;2022-09-13T11:36:52;1.45;;;0.30;;
20908;SDS011;10614;53.198;6.570;2022-09-13T11:39:12;1.27;;;0.52;;
20908;SDS011;10614;53.198;6.570;2022-09-13T11:41:24;2.38;;;0.63;;
20908;SDS011;10614;53.198;6.570;2022-09-13T11:43:36;1.98;;;0.30;;
20908;SDS011;10614;53.198;6.570;2022-09-13T11:45:53;6.55;;;0.63;;
20908;SDS011;10614;53.198;6.570;2022-09-13T11:48:10;0.80;;;0.30;;
20908;SDS011;10614;53.198;6.570;2022-09-13T11:50:34;1.92;;;0.60;;
20908;SDS011;10614;53.198;6.570;2022-09-13T11:52:42;1.50;;;0.30;;
20908;SDS011;10614;53.198;6.570;2022-09-13T11:54:58;2.17;;;0.70;;
20908;SDS011;10614;53.198;6.570;2022-09-13T11:57:08;3.47;;;0.73;;
20908;SDS011;10614;53.198;6.570;2022-09-13T11:59:17;1.80;;;0.40;;
20908;SDS011;10614;53.198;6.570;2022-09-13T12:01:22;3.47;;;0.77;;
20908;SDS011;10614;53.198;6.570;2022-09-13T12:03:29;1.23;;;0.30;;
20908;SDS011;10614;53.198;6.570;2022-09-13T12:05:40;3.75;;;0.70;;
20908;SDS011;10614;53.198;6.570;2022-09-13T12:07:48;1.75;;;0.30;;
20908;SDS011;10614;53.198;6.570;2022-09-13T12:09:56;2.58;;;0.60;;
20908;SDS011;10614;53.198;6.570;2022-09-13T12:12:03;6.95;;;0.60;;
20908;SDS011;10614;53.198;6.570;2022-09-13T12:16:14;1.20;;;0.45;;
20908;SDS011;10614;53.198;6.570;2022-09-13T12:18:21;2.10;;;0.50;;
20908;SDS011;10614;53.198;6.570;2022-09-13T12:20:29;0.70;;;0.40;;
20908;SDS011;10614;53.198;6.570;2022-09-13T12:22:35;1.95;;;0.60;;
20908;SDS011;10614;53.198;6.570;2022-09-13T12:24:39;2.60;;;0.52;;
20908;SDS011;10614;53.198;6.570;2022-09-13T12:26:45;1.35;;;0.43;;
20908;SDS011;10614;53.198;6.570;2022-09-13T12:28:53;5.75;;;0.90;;
20908;SDS011;10614;53.198;6.570;2022-09-13T12:30:58;2.80;;;0.50;;
20908;SDS011;10614;53.198;6.570;2022-09-13T12:33:07;2.05;;;0.55;;
20908;SDS011;10614;53.198;6.570;2022-09-13T12:35:09;2.88;;;0.68;;
20908;SDS011;10614;53.198;6.570;2022-09-13T12:37:33;2.90;;;0.47;;
20908;SDS011;10614;53.198;6.570;2022-09-13T12:40:08;5.53;;;1.00;;
20908;SDS011;10614;53.198;6.570;2022-09-13T12:42:41;3.75;;;0.60;;
20908;SDS011;10614;53.198;6.570;2022-09-13T12:44:56;5.63;;;0.88;;
20908;SDS011;10614;53.198;6.570;2022-09-13T12:47:17;3.80;;;0.43;;
20908;SDS011;10614;53.198;6.570;2022-09-13T12:49:42;1.60;;;0.40;;
20908;SDS011;10614;53.198;6.570;2022-09-13T12:52:05;1.35;;;0.40;;
20908;SDS011;10614;53.198;6.570;2022-09-13T12:54:43;1.73;;;0.60;;
20908;SDS011;10614;53.198;6.570;2022-09-13T12:57:08;3.47;;;0.80;;
20908;SDS011;10614;53.198;6.570;2022-09-13T12:59:32;1.58;;;0.65;;
20908;SDS011;10614;53.198;6.570;2022-09-13T13:01:49;4.63;;;0.77;;
20908;SDS011;10614;53.198;6.570;2022-09-13T13:03:53;3.13;;;0.60;;
20908;SDS011;10614;53.198;6.570;2022-09-13T13:06:05;3.45;;;0.70;;
20908;SDS011;10614;53.198;6.570;2022-09-13T13:08:19;3.63;;;0.82;;
20908;SDS011;10614;53.198;6.570;2022-09-13T13:10:30;4.45;;;0.70;;
20908;SDS011;10614;53.198;6.570;2022-09-13T13:12:34;1.25;;;0.40;;
20908;SDS011;10614;53.198;6.570;2022-09-13T13:14:45;3.15;;;0.63;;
20908;SDS011;10614;53.198;6.570;2022-09-13T13:16:52;2.63;;;0.57;;
20908;SDS011;10614;53.198;6.570;2022-09-13T13:18:54;2.15;;;0.75;;
20908;SDS011;10614;53.198;6.570;2022-09-13T13:21:22;3.50;;;0.50;;
20908;SDS011;10614;53.198;6.570;2022-09-13T13:23:28;3.65;;;0.70;;
20908;SDS011;10614;53.198;6.570;2022-09-13T13:25:34;3.67;;;0.50;;
20908;SDS011;10614;53.198;6.570;2022-09-13T13:27:39;3.38;;;0.93;;
20908;SDS011;10614;53.198;6.570;2022-09-13T13:29:43;0.80;;;0.20;;
20908;SDS011;10614;53.198;6.570;2022-09-13T13:32:11;2.63;;;0.70;;
20908;SDS011;10614;53.198;6.570;2022-09-13T13:36:42;3.20;;;0.40;;
20908;SDS011;10614;53.198;6.570;2022-09-13T13:38:48;3.67;;;0.60;;
20908;SDS011;10614;53.198;6.570;2022-09-13T13:40:49;4.65;;;0.45;;
20908;SDS011;10614;53.198;6.570;2022-09-13T13:45:31;0.50;;;0.20;;
20908;SDS011;10614;53.198;6.570;2022-09-13T13:50:20;3.63;;;0.70;;
20908;SDS011;10614;53.198;6.570;2022-09-13T13:52:34;2.97;;;0.50;;
20908;SDS011;10614;53.198;6.570;2022-09-13T13:57:02;2.60;;;0.70;;